EGVN

RAF Brize Norton Airport

Brize Norton, United Kingdom
METAR EGVN 180150Z 35004KT CAVOK 04/02 Q1023 BLU NOSIG
Observed Flight Rules
Dec-18 @ 01:50 UTC (an hour ago) Visual Flight Rules
Wind Visibility Clouds
350° at 4 knots 10,000+ meters
  • Clear skies
Temperatures Readings
Current 4°C / 39°F
Dewpoint 2°C / 36°F
Humidity 87%
Altimeter 30.21" Hg
Pressure 1023 hPa
Elevation 88
METAR EGVN 180150Z 35004KT CAVOK 04/02 Q1023 BLU NOSIG
Observed Flight Rules
Dec-18 @ 01:50 UTC
(an hour ago)
VFR
Wind Visibility
350° at 4 knots 10,000+ meters
Clouds
  • Clear skies
Temperature Dewpoint
4°C / 39°F 2°C / 36°F
Humidity Altimeter Pressure
87% 30.21" Hg 1023 hPa